Mekhanik Pogodin — UBFH6 — position and weather

sailwx.info

Track history (hours):
 
Tides and Currents Weather Stations Pressure Air Temp Water Temp Dewpoint Dewpoint Depression Visibility Wind Speed Wind Dir Waves Ship Positions

Mekhanik Pogodin

Last reported at 2016-Aug-24 07:12 UTC. Time now 2016-Aug-27 22:16 UTC.
Position N 45°34' E 036°50'.

Length 141 m; draft 3.4 m.

Type: Ship (hazmat cat A). MMSI: 273354720.

Date/timePositionNaut miles runAvg speedWind from/ knotsBaromVisibWave heightAir tempDewpointWater temp
2016-Aug-24 07:12N 45°34' E 036°50'6 9.1
2016-Aug-24 06:33N 45°29' E 036°44'14 7.1
2016-Aug-24 04:32N 45°19' E 036°30'13 8.7
2016-Aug-24 03:04N 45°06' E 036°30'  
2016-Aug-19 11:22N 37°38' E 023°54'7 9.1
2016-Aug-19 10:33N 37°39' E 023°45'8 8.5
2016-Aug-19 09:33N 37°46' E 023°39'9 8.6
2016-Aug-19 08:33N 37°52' E 023°31'0 0.1
2016-Aug-19 07:32N 37°52' E 023°31'0 0.0
2016-Aug-19 06:32N 37°52' E 023°31'0 0.0
2016-Aug-19 05:32N 37°52' E 023°31'0 0.0
2016-Aug-19 04:32N 37°52' E 023°31'0 0.0
2016-Aug-19 03:32N 37°52' E 023°31'0 0.0
2016-Aug-19 02:32N 37°52' E 023°31'0 0.5
2016-Aug-19 01:33N 37°52' E 023°31'9 8.8
2016-Aug-19 00:33N 37°52' E 023°19'9 9.2
2016-Aug-18 23:33N 37°54' E 023°08'2 2.2
2016-Aug-18 22:32N 37°55' E 023°05'0 0.0
2016-Aug-18 21:29N 37°55' E 023°05'0 0.0
2016-Aug-18 20:32N 37°55' E 023°05'0 0.0
2016-Aug-18 19:32N 37°55' E 023°05'0 0.0
2016-Aug-18 18:32N 37°55' E 023°05'0 0.0
2016-Aug-18 17:23N 37°55' E 023°05'0 0.0
2016-Aug-18 16:26N 37°55' E 023°05'0 0.0
2016-Aug-18 15:32N 37°55' E 023°05'0 0.0
2016-Aug-18 14:11N 37°55' E 023°05'0 0.0
2016-Aug-18 13:32N 37°55' E 023°05'0 0.0
2016-Aug-18 06:15N 37°55' E 023°05'0 0.6
2016-Aug-18 05:33N 37°54' E 023°05'0 0.0
2016-Aug-18 04:32N 37°54' E 023°05'0 0.0
2016-Aug-18 03:32N 37°54' E 023°05'0 0.0
2016-Aug-18 02:29N 37°54' E 023°05'0 0.0
2016-Aug-18 01:26N 37°54' E 023°05'0 0.0
2016-Aug-18 00:29N 37°54' E 023°05'0 0.0
2016-Aug-17 23:23N 37°54' E 023°05'0 0.1
2016-Aug-17 20:32N 37°54' E 023°05'0 0.0
2016-Aug-17 19:26N 37°54' E 023°05'0 0.0
2016-Aug-17 18:26N 37°54' E 023°05'0 0.0
2016-Aug-17 15:05N 37°54' E 023°05'0 0.0
2016-Aug-17 13:32N 37°54' E 023°05'0 0.0
2016-Aug-17 12:32N 37°54' E 023°05'0 0.0
2016-Aug-17 11:32N 37°54' E 023°05'0 0.0
2016-Aug-17 06:32N 37°54' E 023°05'0 0.0
2016-Aug-17 03:29N 37°54' E 023°05'0 0.1
2016-Aug-17 02:32N 37°54' E 023°05'0 0.0
2016-Aug-17 01:32N 37°54' E 023°05'0 0.0
2016-Aug-17 00:32N 37°54' E 023°05'0 0.0
2016-Aug-16 23:26N 37°54' E 023°05'0 0.0
2016-Aug-16 22:26N 37°54' E 023°05'0 0.1
2016-Aug-16 21:17N 37°54' E 023°05'0 0.0
2016-Aug-16 20:29N 37°54' E 023°05'0 0.0
2016-Aug-16 19:29N 37°54' E 023°05'0 0.1
2016-Aug-16 17:32N 37°54' E 023°05'0 0.1
2016-Aug-16 15:32N 37°54' E 023°05'0 0.0
2016-Aug-16 12:14N 37°54' E 023°05'0 0.0
2016-Aug-16 11:29N 37°54' E 023°05'0 0.0
2016-Aug-16 10:20N 37°54' E 023°05'0 0.0
2016-Aug-16 09:26N 37°54' E 023°05'0 0.0
2016-Aug-16 04:23N 37°54' E 023°05'0 0.0
2016-Aug-15 23:32N 37°54' E 023°05'0 0.1
2016-Aug-15 22:26N 37°54' E 023°05'0 0.1
2016-Aug-15 21:32N 37°54' E 023°05'0 0.0
2016-Aug-15 20:29N 37°54' E 023°05'0 0.0
2016-Aug-15 19:20N 37°54' E 023°05'0 0.1
2016-Aug-15 18:32N 37°54' E 023°05'0 0.0
2016-Aug-15 15:32N 37°54' E 023°05'0 0.0
2016-Aug-15 14:23N 37°54' E 023°05'0 0.0
2016-Aug-15 13:23N 37°54' E 023°05'0 0.0
2016-Aug-15 12:23N 37°54' E 023°05'0 0.0
2016-Aug-15 11:23N 37°54' E 023°05'0 0.0
2016-Aug-15 10:32N 37°54' E 023°05'0 0.0
2016-Aug-15 09:32N 37°54' E 023°05'0 0.0
2016-Aug-15 07:05N 37°54' E 023°05'0 0.0
2016-Aug-15 06:11N 37°54' E 023°05'0 0.0
2016-Aug-15 04:32N 37°54' E 023°05'0 0.0
2016-Aug-15 03:29N 37°54' E 023°05'0 0.0
2016-Aug-15 02:32N 37°54' E 023°05'0 0.0
2016-Aug-15 01:26N 37°54' E 023°05'0 0.0
2016-Aug-15 00:14N 37°54' E 023°05'0 0.0
2016-Aug-14 23:32N 37°54' E 023°05'0 0.0
2016-Aug-14 22:32N 37°54' E 023°05'0 0.0
2016-Aug-14 19:29N 37°54' E 023°05'0 0.1
2016-Aug-14 17:29N 37°54' E 023°05'0 0.0
2016-Aug-14 16:32N 37°54' E 023°05'0 0.0
2016-Aug-14 15:26N 37°54' E 023°05'0 0.0
2016-Aug-14 14:32N 37°54' E 023°05'0 0.0
2016-Aug-14 13:32N 37°54' E 023°05'0 0.0
2016-Aug-14 12:26N 37°54' E 023°05'0 0.0
2016-Aug-14 11:29N 37°54' E 023°05'0 0.0
2016-Aug-14 10:32N 37°54' E 023°05'0 0.0
2016-Aug-14 09:08N 37°54' E 023°05'0 0.0
2016-Aug-14 07:32N 37°54' E 023°05'  
Track history (hours):
 
Tides and Currents Weather Stations Pressure Air Temp Water Temp Dewpoint Dewpoint Depression Visibility Wind Speed Wind Dir Waves Ship Positions

Mekhanik Pogodin

Last reported at 2016-Aug-24 07:12 UTC. Time now 2016-Aug-27 22:16 UTC.
Position N 45°34' E 036°50'.

Length 141 m; draft 3.4 m.

Type: Ship (hazmat cat A). MMSI: 273354720.

Date/timePositionNaut miles runAvg speedWind from/ knotsBaromVisibWave heightAir tempDewpointWater temp
2016-Aug-24 07:12N 45°34' E 036°50'6 9.1
2016-Aug-24 06:33N 45°29' E 036°44'14 7.1
2016-Aug-24 04:32N 45°19' E 036°30'13 8.7
2016-Aug-24 03:04N 45°06' E 036°30'  
2016-Aug-19 11:22N 37°38' E 023°54'7 9.1
2016-Aug-19 10:33N 37°39' E 023°45'8 8.5
2016-Aug-19 09:33N 37°46' E 023°39'9 8.6
2016-Aug-19 08:33N 37°52' E 023°31'0 0.1
2016-Aug-19 07:32N 37°52' E 023°31'0 0.0
2016-Aug-19 06:32N 37°52' E 023°31'0 0.0
2016-Aug-19 05:32N 37°52' E 023°31'0 0.0
2016-Aug-19 04:32N 37°52' E 023°31'0 0.0
2016-Aug-19 03:32N 37°52' E 023°31'0 0.0
2016-Aug-19 02:32N 37°52' E 023°31'0 0.5
2016-Aug-19 01:33N 37°52' E 023°31'9 8.8
2016-Aug-19 00:33N 37°52' E 023°19'9 9.2
2016-Aug-18 23:33N 37°54' E 023°08'2 2.2
2016-Aug-18 22:32N 37°55' E 023°05'0 0.0
2016-Aug-18 21:29N 37°55' E 023°05'0 0.0
2016-Aug-18 20:32N 37°55' E 023°05'0 0.0
2016-Aug-18 19:32N 37°55' E 023°05'0 0.0
2016-Aug-18 18:32N 37°55' E 023°05'0 0.0
2016-Aug-18 17:23N 37°55' E 023°05'0 0.0
2016-Aug-18 16:26N 37°55' E 023°05'0 0.0
2016-Aug-18 15:32N 37°55' E 023°05'0 0.0
2016-Aug-18 14:11N 37°55' E 023°05'0 0.0
2016-Aug-18 13:32N 37°55' E 023°05'0 0.0
2016-Aug-18 06:15N 37°55' E 023°05'0 0.6
2016-Aug-18 05:33N 37°54' E 023°05'0 0.0
2016-Aug-18 04:32N 37°54' E 023°05'0 0.0
2016-Aug-18 03:32N 37°54' E 023°05'0 0.0
2016-Aug-18 02:29N 37°54' E 023°05'0 0.0
2016-Aug-18 01:26N 37°54' E 023°05'0 0.0
2016-Aug-18 00:29N 37°54' E 023°05'0 0.0
2016-Aug-17 23:23N 37°54' E 023°05'0 0.1
2016-Aug-17 20:32N 37°54' E 023°05'0 0.0
2016-Aug-17 19:26N 37°54' E 023°05'0 0.0
2016-Aug-17 18:26N 37°54' E 023°05'0 0.0
2016-Aug-17 15:05N 37°54' E 023°05'0 0.0
2016-Aug-17 13:32N 37°54' E 023°05'0 0.0
2016-Aug-17 12:32N 37°54' E 023°05'0 0.0
2016-Aug-17 11:32N 37°54' E 023°05'0 0.0
2016-Aug-17 06:32N 37°54' E 023°05'0 0.0
2016-Aug-17 03:29N 37°54' E 023°05'0 0.1
2016-Aug-17 02:32N 37°54' E 023°05'0 0.0
2016-Aug-17 01:32N 37°54' E 023°05'0 0.0
2016-Aug-17 00:32N 37°54' E 023°05'0 0.0
2016-Aug-16 23:26N 37°54' E 023°05'0 0.0
2016-Aug-16 22:26N 37°54' E 023°05'0 0.1
2016-Aug-16 21:17N 37°54' E 023°05'0 0.0
2016-Aug-16 20:29N 37°54' E 023°05'0 0.0
2016-Aug-16 19:29N 37°54' E 023°05'0 0.1
2016-Aug-16 17:32N 37°54' E 023°05'0 0.1
2016-Aug-16 15:32N 37°54' E 023°05'0 0.0
2016-Aug-16 12:14N 37°54' E 023°05'0 0.0
2016-Aug-16 11:29N 37°54' E 023°05'0 0.0
2016-Aug-16 10:20N 37°54' E 023°05'0 0.0
2016-Aug-16 09:26N 37°54' E 023°05'0 0.0
2016-Aug-16 04:23N 37°54' E 023°05'0 0.0
2016-Aug-15 23:32N 37°54' E 023°05'0 0.1
2016-Aug-15 22:26N 37°54' E 023°05'0 0.1
2016-Aug-15 21:32N 37°54' E 023°05'0 0.0
2016-Aug-15 20:29N 37°54' E 023°05'0 0.0
2016-Aug-15 19:20N 37°54' E 023°05'0 0.1
2016-Aug-15 18:32N 37°54' E 023°05'0 0.0
2016-Aug-15 15:32N 37°54' E 023°05'0 0.0
2016-Aug-15 14:23N 37°54' E 023°05'0 0.0
2016-Aug-15 13:23N 37°54' E 023°05'0 0.0
2016-Aug-15 12:23N 37°54' E 023°05'0 0.0
2016-Aug-15 11:23N 37°54' E 023°05'0 0.0
2016-Aug-15 10:32N 37°54' E 023°05'0 0.0
2016-Aug-15 09:32N 37°54' E 023°05'0 0.0
2016-Aug-15 07:05N 37°54' E 023°05'0 0.0
2016-Aug-15 06:11N 37°54' E 023°05'0 0.0
2016-Aug-15 04:32N 37°54' E 023°05'0 0.0
2016-Aug-15 03:29N 37°54' E 023°05'0 0.0
2016-Aug-15 02:32N 37°54' E 023°05'0 0.0
2016-Aug-15 01:26N 37°54' E 023°05'0 0.0
2016-Aug-15 00:14N 37°54' E 023°05'0 0.0
2016-Aug-14 23:32N 37°54' E 023°05'0 0.0
2016-Aug-14 22:32N 37°54' E 023°05'0 0.0
2016-Aug-14 19:29N 37°54' E 023°05'0 0.1
2016-Aug-14 17:29N 37°54' E 023°05'0 0.0
2016-Aug-14 16:32N 37°54' E 023°05'0 0.0
2016-Aug-14 15:26N 37°54' E 023°05'0 0.0
2016-Aug-14 14:32N 37°54' E 023°05'0 0.0
2016-Aug-14 13:32N 37°54' E 023°05'0 0.0
2016-Aug-14 12:26N 37°54' E 023°05'0 0.0
2016-Aug-14 11:29N 37°54' E 023°05'0 0.0
2016-Aug-14 10:32N 37°54' E 023°05'0 0.0
2016-Aug-14 09:08N 37°54' E 023°05'0 0.0
2016-Aug-14 07:32N 37°54' E 023°05'  

Dump ship's entire track history